Wilson Maas — 8PSZ — position and weather

sailwx.info

Track history (hours):
 
Tides and Currents Weather Stations Pressure Air Temp Water Temp Dewpoint Dewpoint Depression Visibility Wind Speed Wind Dir Waves Ship Positions

Wilson Maas

Last reported at 2015-May-03 02:10 UTC. Time now 2015-May-03 13:52 UTC.
Position N 59°26' E 005°14'.

Length 78 m; draft 3.8 m.

Type: Cargo ship. MMSI: 314217000.

Date/timePositionNaut miles runAvg speedWind from/ knotsBaromVisibWave heightAir tempDewpointWater temp
2015-May-03 02:10N 59°26' E 005°14'1710.3
2015-May-03 00:32N 59°10' E 005°21'1010.4
2015-May-02 23:33N 58°59' E 005°19'10 9.9
2015-May-02 22:33N 58°50' E 005°22'12 9.7
2015-May-02 21:17N 58°38' E 005°26'810.3
2015-May-02 20:31N 58°30' E 005°30'10 9.9
2015-May-02 19:32N 58°20' E 005°33'256 8.7
2015-May-01 14:13N 54°06' E 004°55'7 9.7
2015-May-01 13:27N 53°58' E 004°53'9 9.4
2015-May-01 12:32N 53°50' E 004°52'54 8.8
2015-May-01 06:21N 52°59' E 004°20'8 9.6
2015-May-01 05:33N 52°52' E 004°14'10 9.8
2015-May-01 04:33N 52°44' E 004°04'1210.5
2015-May-01 03:23N 52°36' E 003°50'5610.9
2015-Apr-30 22:14N 51°43' E 003°18'8 9.5
2015-Apr-30 21:21N 51°35' E 003°24'7 9.1
2015-Apr-30 20:33N 51°29' E 003°30'8 8.3
2015-Apr-30 19:33N 51°26' E 003°42'9 8.6
2015-Apr-30 18:33N 51°22' E 003°54'6 6.5
2015-Apr-30 17:33N 51°22' E 004°05'9 8.7
2015-Apr-30 16:33N 51°18' E 004°17'2 2.4
2015-Apr-30 15:34N 51°17' E 004°20'1 1.2
2015-Apr-30 14:32N 51°17' E 004°22'0 0.0
2015-Apr-30 13:32N 51°17' E 004°22'0 0.0
2015-Apr-30 12:32N 51°17' E 004°22'0 0.0
2015-Apr-30 11:32N 51°17' E 004°22'0 0.0
2015-Apr-30 10:29N 51°17' E 004°22'0 0.0
2015-Apr-30 09:32N 51°17' E 004°22'0 0.0
2015-Apr-30 08:29N 51°17' E 004°22'0 0.0
2015-Apr-30 07:26N 51°17' E 004°22'0 0.0
2015-Apr-30 06:26N 51°17' E 004°22'3 2.9
2015-Apr-30 05:32N 51°19' E 004°19'9 7.5
2015-Apr-30 04:22N 51°27' E 004°14'3 3.5
2015-Apr-30 03:33N 51°30' E 004°13'21 6.6
2015-Apr-30 00:18N 51°45' E 004°38'4 5.6
2015-Apr-29 23:33N 51°49' E 004°39'2210.7
2015-Apr-29 21:29N 51°49' E 005°15'55 8.9
2015-Apr-29 15:16N 51°34' E 006°41'  
2015-Apr-26 02:06N 51°33' E 006°41'4 4.1
2015-Apr-26 01:11N 51°35' E 006°36'47 5.4
2015-Apr-25 16:22N 51°50' E 005°23'5 5.8
2015-Apr-25 15:32N 51°49' E 005°16'16 7.8
2015-Apr-25 13:32N 51°49' E 004°50'8 7.4
2015-Apr-25 12:30N 51°52' E 004°39'7 6.9
2015-Apr-25 11:32N 51°54' E 004°29'2 0.8
2015-Apr-25 08:30N 51°54' E 004°25'0 0.0
2015-Apr-25 07:30N 51°54' E 004°25'0 0.0
2015-Apr-25 06:33N 51°54' E 004°25'0 0.0
2015-Apr-25 05:33N 51°54' E 004°25'0 0.0
2015-Apr-25 04:33N 51°54' E 004°25'0 0.0
2015-Apr-25 03:33N 51°54' E 004°25'6 5.8
2015-Apr-25 02:33N 51°54' E 004°16'8 7.9
2015-Apr-25 01:33N 51°59' E 004°05'8 8.2
2015-Apr-25 00:33N 52°00' E 003°52'11 9.0
2015-Apr-24 23:23N 52°10' E 003°47'45 9.2
2015-Apr-24 18:31N 52°54' E 003°60'9 8.9
2015-Apr-24 17:33N 53°01' E 004°08'1210.5
2015-Apr-24 16:26N 53°08' E 004°23'2910.0
2015-Apr-24 13:30N 53°36' E 004°39'9 9.2
2015-Apr-24 12:33N 53°45' E 004°43'21 8.9
2015-Apr-24 10:10N 54°06' E 004°51'16 9.1
2015-Apr-24 08:27N 54°21' E 004°57'9 9.3
2015-Apr-24 07:30N 54°29' E 004°59'259 8.9
2015-Apr-23 02:26N 58°49' E 005°20'  
Track history (hours):
 
Tides and Currents Weather Stations Pressure Air Temp Water Temp Dewpoint Dewpoint Depression Visibility Wind Speed Wind Dir Waves Ship Positions

Wilson Maas

Last reported at 2015-May-03 02:10 UTC. Time now 2015-May-03 13:52 UTC.
Position N 59°26' E 005°14'.

Length 78 m; draft 3.8 m.

Type: Cargo ship. MMSI: 314217000.

Date/timePositionNaut miles runAvg speedWind from/ knotsBaromVisibWave heightAir tempDewpointWater temp
2015-May-03 02:10N 59°26' E 005°14'1710.3
2015-May-03 00:32N 59°10' E 005°21'1010.4
2015-May-02 23:33N 58°59' E 005°19'10 9.9
2015-May-02 22:33N 58°50' E 005°22'12 9.7
2015-May-02 21:17N 58°38' E 005°26'810.3
2015-May-02 20:31N 58°30' E 005°30'10 9.9
2015-May-02 19:32N 58°20' E 005°33'256 8.7
2015-May-01 14:13N 54°06' E 004°55'7 9.7
2015-May-01 13:27N 53°58' E 004°53'9 9.4
2015-May-01 12:32N 53°50' E 004°52'54 8.8
2015-May-01 06:21N 52°59' E 004°20'8 9.6
2015-May-01 05:33N 52°52' E 004°14'10 9.8
2015-May-01 04:33N 52°44' E 004°04'1210.5
2015-May-01 03:23N 52°36' E 003°50'5610.9
2015-Apr-30 22:14N 51°43' E 003°18'8 9.5
2015-Apr-30 21:21N 51°35' E 003°24'7 9.1
2015-Apr-30 20:33N 51°29' E 003°30'8 8.3
2015-Apr-30 19:33N 51°26' E 003°42'9 8.6
2015-Apr-30 18:33N 51°22' E 003°54'6 6.5
2015-Apr-30 17:33N 51°22' E 004°05'9 8.7
2015-Apr-30 16:33N 51°18' E 004°17'2 2.4
2015-Apr-30 15:34N 51°17' E 004°20'1 1.2
2015-Apr-30 14:32N 51°17' E 004°22'0 0.0
2015-Apr-30 13:32N 51°17' E 004°22'0 0.0
2015-Apr-30 12:32N 51°17' E 004°22'0 0.0
2015-Apr-30 11:32N 51°17' E 004°22'0 0.0
2015-Apr-30 10:29N 51°17' E 004°22'0 0.0
2015-Apr-30 09:32N 51°17' E 004°22'0 0.0
2015-Apr-30 08:29N 51°17' E 004°22'0 0.0
2015-Apr-30 07:26N 51°17' E 004°22'0 0.0
2015-Apr-30 06:26N 51°17' E 004°22'3 2.9
2015-Apr-30 05:32N 51°19' E 004°19'9 7.5
2015-Apr-30 04:22N 51°27' E 004°14'3 3.5
2015-Apr-30 03:33N 51°30' E 004°13'21 6.6
2015-Apr-30 00:18N 51°45' E 004°38'4 5.6
2015-Apr-29 23:33N 51°49' E 004°39'2210.7
2015-Apr-29 21:29N 51°49' E 005°15'55 8.9
2015-Apr-29 15:16N 51°34' E 006°41'  
2015-Apr-26 02:06N 51°33' E 006°41'4 4.1
2015-Apr-26 01:11N 51°35' E 006°36'47 5.4
2015-Apr-25 16:22N 51°50' E 005°23'5 5.8
2015-Apr-25 15:32N 51°49' E 005°16'16 7.8
2015-Apr-25 13:32N 51°49' E 004°50'8 7.4
2015-Apr-25 12:30N 51°52' E 004°39'7 6.9
2015-Apr-25 11:32N 51°54' E 004°29'2 0.8
2015-Apr-25 08:30N 51°54' E 004°25'0 0.0
2015-Apr-25 07:30N 51°54' E 004°25'0 0.0
2015-Apr-25 06:33N 51°54' E 004°25'0 0.0
2015-Apr-25 05:33N 51°54' E 004°25'0 0.0
2015-Apr-25 04:33N 51°54' E 004°25'0 0.0
2015-Apr-25 03:33N 51°54' E 004°25'6 5.8
2015-Apr-25 02:33N 51°54' E 004°16'8 7.9
2015-Apr-25 01:33N 51°59' E 004°05'8 8.2
2015-Apr-25 00:33N 52°00' E 003°52'11 9.0
2015-Apr-24 23:23N 52°10' E 003°47'45 9.2
2015-Apr-24 18:31N 52°54' E 003°60'9 8.9
2015-Apr-24 17:33N 53°01' E 004°08'1210.5
2015-Apr-24 16:26N 53°08' E 004°23'2910.0
2015-Apr-24 13:30N 53°36' E 004°39'9 9.2
2015-Apr-24 12:33N 53°45' E 004°43'21 8.9
2015-Apr-24 10:10N 54°06' E 004°51'16 9.1
2015-Apr-24 08:27N 54°21' E 004°57'9 9.3
2015-Apr-24 07:30N 54°29' E 004°59'259 8.9
2015-Apr-23 02:26N 58°49' E 005°20'  

Dump ship's entire track history